Flight Track Log - Related Links

Times and Time Zones

All times are in EDT time to prevent confusion due to time zone crossing. See the AWE1940 flight status page for this flight to view local times or setup timezone preferences in your user account.

Time Position Orientation Groundspeed Altitude Reporting Facility
EDT Latitude Longitude Course Direction KTS km/h meters Rate Location/Type
Tue 19:11:00 26.2831 -82.0936 231° Southwest  Level FlightAware Approximate
Tue 19:11:32 26.4460 -81.7360 230° Southwest 261 483 1,829  Level FlightAware ADS-B
Tue 19:11:57 26.4310 -81.7610 236° Southwest 268 496 2,134 691 Climbing FlightAware ADS-B
Tue 19:12:00 26.1985 -82.2076 230° Southwest  Level FlightAware Approximate
Tue 19:12:17 26.4190 -81.7790 233° Southwest 271 502 2,347  Level FlightAware ADS-B
Tue 19:13:12 26.3770 -81.8460 235° Southwest 287 531 3,109 689 Climbing FlightAware ADS-B
Tue 19:13:42 26.3530 -81.8820 233° Southwest 307 568 3,322 171 Climbing FlightAware ADS-B
Tue 19:14:27 26.3190 -81.9350 234° Southwest 307 568 3,322 698 Level FlightAware ADS-B
Tue 19:14:37 26.3340 -81.9730 294° West 332 615 3,962 591 Climbing FlightAware ADS-B
Tue 19:15:32 26.3300 -82.0570 267° West 332 615 3,962 615 Level FlightAware ADS-B
Tue 19:16:27 26.3220 -82.2010 266° West 345 639 5,090 712 Climbing FlightAware ADS-B
Tue 19:17:07 26.3190 -82.2610 267° West 345 639 5,090  Level FlightAware ADS-B
Tue 19:17:47 26.3170 -82.3220 268° West 345 639 5,090  Level FlightAware ADS-B
Tue 19:18:27 26.3140 -82.3820 267° West 345 639 5,090  Level FlightAware ADS-B
Tue 19:19:07 26.3110 -82.4430 267° West 345 639 5,090 1,483 Level FlightAware ADS-B
Tue 19:19:57 26.3740 -82.5610 301° West 398 737 7,315 1,372 Climbing FlightAware ADS-B
Tue 19:21:07 26.5130 -82.5740 355° North 418 774 7,833 296 Climbing FlightAware ADS-B
Tue 19:21:42 26.5720 -82.5790 356° North 418 774 7,833 58 Level FlightAware ADS-B
Tue 19:22:42 26.6950 -82.5880 356° North 437 810 7,925 77 Climbing FlightAware ADS-B
Tue 19:23:17 26.7660 -82.5940 356° North 435 806 7,955 22 Climbing FlightAware ADS-B
Tue 19:24:07 26.8700 -82.6020 356° North 435 806 7,955 -14 Level FlightAware ADS-B
Tue 19:25:27 27.0310 -82.6150 356° North 437 810 7,925  Descending FlightAware ADS-B
Tue 19:26:27 27.1510 -82.6240 356° North 438 811 7,955 14 Climbing FlightAware ADS-B
Tue 19:27:37 27.2940 -82.6350 356° North 432 800 7,955  Level FlightAware ADS-B
Tue 19:28:47 27.4360 -82.6470 356° North 432 800 7,955  Level FlightAware ADS-B
Tue 19:30:12 27.6110 -82.6600 356° North 439 813 7,955 -15 Level FlightAware ADS-B
Tue 19:30:52 27.6940 -82.6670 356° North 438 811 7,925  Descending FlightAware ADS-B
Tue 19:31:37 27.7850 -82.6740 356° North 438 811 7,955  Climbing FlightAware ADS-B
Tue 19:32:17 27.8660 -82.6800 356° North 431 798 7,925 -26 Descending FlightAware ADS-B
Tue 19:32:47 27.9270 -82.6790 North 434 803 7,925 26 Level FlightAware ADS-B
Tue 19:33:27 28.0090 -82.6760 North 433 801 7,955 22 Climbing FlightAware ADS-B
Tue 19:34:12 28.1000 -82.6710 North 432 800 7,955  Level FlightAware ADS-B
Tue 19:34:52 28.1830 -82.6670 North 432 800 7,955 -23 Level FlightAware ADS-B
Tue 19:35:32 28.2640 -82.6630 North 433 801 7,925  Descending FlightAware ADS-B
Tue 19:36:32 28.3930 -82.6740 356° North 458 848 7,955  Climbing FlightAware ADS-B
Tue 19:37:12 28.4750 -82.7070 341° North 476 882 7,925 -23 Descending FlightAware ADS-B
Tue 19:37:52 28.5600 -82.7420 340° North 474 877 7,925 22 Level FlightAware ADS-B
Tue 19:38:37 28.6540 -82.7740 343° North 465 861 7,955 24 Climbing FlightAware ADS-B
Tue 19:39:07 28.7120 -82.7870 349° North 466 863 7,955  Level FlightAware ADS-B
Tue 19:39:57 28.8160 -82.8090 349° North 458 848 7,955 -19 Level FlightAware ADS-B
Tue 19:40:42 28.9070 -82.8280 350° North 459 850 7,925  Descending FlightAware ADS-B
Tue 19:41:22 28.9980 -82.8400 353° North 466 863 7,955 23 Climbing FlightAware ADS-B
Tue 19:42:02 29.0870 -82.8410 359° North 467 864 7,955  Level FlightAware ADS-B
Tue 19:42:47 29.1810 -82.8420 359° North 463 858 7,955  Level FlightAware ADS-B
Tue 19:43:17 29.2480 -82.8370 North 452 837 7,955  Level FlightAware ADS-B
Tue 19:43:52 29.3140 -82.8220 11° North 462 856 7,955  Level FlightAware ADS-B
Tue 19:44:37 29.4010 -82.8030 11° North 462 856 7,955  Level FlightAware ADS-B
Tue 19:45:37 29.5340 -82.7730 11° North 456 845 7,955  Level FlightAware ADS-B
Tue 19:46:17 29.6050 -82.7570 11° North 456 845 7,955  Level FlightAware ADS-B
Tue 19:46:57 29.6750 -82.7420 11° North 456 845 7,955 -22 Level FlightAware ADS-B
Tue 19:47:42 29.8080 -82.7110 11° North 478 885 7,925 -38 Descending FlightAware ADS-B
Tue 19:48:32 29.9210 -82.6860 11° North 483 895 7,894 -20 Descending FlightAware ADS-B
Tue 19:49:12 29.9960 -82.6690 11° North 483 895 7,894  Level FlightAware ADS-B
Tue 19:50:02 30.0890 -82.6480 11° North 483 895 7,894  Level FlightAware ADS-B
Tue 19:50:42 30.1640 -82.6310 11° North 483 895 7,894  Level FlightAware ADS-B
Tue 19:51:12 30.2200 -82.6190 10° North 483 895 7,894  Level FlightAware ADS-B
Tue 19:51:52 30.2940 -82.6020 11° North 483 895 7,894 -187 Level FlightAware ADS-B
Tue 19:52:40 30.4394 -82.5672 11° North 470 871 7,620 -152 Descending Jacksonville Center
Tue 19:53:40 30.5689 -82.5500 North 465 861 7,620  Level Jacksonville Center
Tue 19:54:40 30.6983 -82.5472 North 465 861 7,620  Level Jacksonville Center
Tue 19:55:40 30.8278 -82.5394 North 465 861 7,620  Level Jacksonville Center
Tue 19:56:40 30.9489 -82.5364 North 449 832 7,620  Level Jacksonville Center
Tue 19:57:40 31.0678 -82.5286 North 435 806 7,620  Level Jacksonville Center
Tue 19:58:40 31.1847 -82.5258 North 419 776 7,620  Level Jacksonville Center
Tue 19:59:40 31.2994 -82.5231 North 419 776 7,620  Level Jacksonville Center
Tue 20:01:55 31.5617 -82.5083 North 421 779 7,620  Level Atlanta Center
Tue 20:02:55 31.6783 -82.4869 North 421 779 7,620  Level Atlanta Center
Tue 20:03:55 31.7908 -82.4703 North 421 779 7,620  Level Atlanta Center
Tue 20:04:55 31.9056 -82.4536 North 421 779 7,620  Level Atlanta Center
Tue 20:11:12 32.6400 -82.3350 North 435 806 7,620 -38 Level FlightAware ADS-B
Tue 20:12:52 32.8350 -82.3040 North 428 793 7,315 -97 Descending FlightAware ADS-B
Tue 20:14:02 32.9730 -82.2820 North 426 789 7,346 12 Climbing FlightAware ADS-B
Tue 20:15:32 33.1560 -82.2520 North 425 787 7,346 -16 Level FlightAware ADS-B
Tue 20:15:55 33.1989 -82.2439 North 423 784 7,315 -22 Descending Atlanta Center
Tue 20:16:55 33.3175 -82.2267 North 428 793 7,315  Level Atlanta Center
Tue 20:17:55 33.4319 -82.2067 North 423 784 7,315  Level Atlanta Center
Tue 20:18:55 33.5508 -82.1894 North 423 784 7,315  Level Atlanta Center
Tue 20:19:55 33.6597 -82.2269 344° North 409 758 7,315  Level Atlanta Center
Tue 20:20:55 33.7650 -82.2847 335° Northwest 404 748 7,315 -116 Level Atlanta Center
Tue 20:27:02 34.3670 -82.0090 335° Northwest 393 727 6,492 -218 Descending FlightAware ADS-B
Tue 20:28:12 34.4530 -81.8990 47° Northeast 380 703 5,730 -661 Descending FlightAware ADS-B
Tue 20:29:12 34.4530 -81.9000 270° West 372 689 5,060 -653 Descending FlightAware ADS-B
Tue 20:30:32 34.6110 -81.7000 46° Northeast 355 658 4,206 -427 Descending FlightAware ADS-B
Tue 20:31:12 34.6490 -81.6510 47° Northeast 355 658 4,206  Level FlightAware ADS-B
Tue 20:32:02 34.6980 -81.5900 46° Northeast 355 658 4,206 -484 Level FlightAware ADS-B
Tue 20:32:54 34.7575 -81.5156 46° Northeast 286 529 3,383 -566 Descending Atlanta Center
Tue 20:33:55 34.7869 -81.4286 68° East 281 520 3,139 -394 Descending Atlanta Center
Tue 20:34:50 34.7933 -81.3375 85° East 293 542 2,621 -472 Descending Atlanta Center
Tue 20:35:55 34.8017 -81.2411 84° East 281 520 2,195 -234 Descending Atlanta Center
Tue 20:36:55 34.8100 -81.1547 83° East 274 507 2,134 -30 Descending Atlanta Center
Tue 20:37:55 34.8203 -81.0608 82° East 274 507 2,134  Level Atlanta Center
Tue 20:38:53 34.8289 -80.9769 83° East 225 417 2,134  Level Atlanta Center
Tue 20:39:55 34.8844 -80.9522 20° North 203 377 2,134 -55 Level Atlanta Center
Tue 20:41:07 34.9658 -80.9492 North 218 404 2,012 -242 Descending Atlanta Center
Tue 20:41:56 35.0075 -80.9503 359° North 165 306 1,646 -499 Descending Atlanta Center
Tue 20:42:57 35.0536 -80.9561 354° North 163 303 1,097 -539 Descending Atlanta Center

Login

Don't have an account? Register now (free) for customized features, flight alerts, and more!